普天間飛行場の過去48時間の天気

普天間飛行場 (Futema)

現在時刻: 10/23 20:37 JST (10/23 11:37 UTC) 以下の時間は現地時間です。

過去48時間のMETAR気象情報
時間 風向 風速(m/s) 視程 気温(℃) 湿度(%) 気圧(hPa) 天気現象
23 19:56 西北西 5 10km以上 23.9 76 1010.9
23 18:56 西北西 4 10km以上 23.9 74 1010.5
23 16:56 西 4 10km以上 25.6 69 1009.4
23 14:56 西 7 10km以上 26.7 71 1008.9
23 13:56 西北西 6 10km以上 27.8 69 1008.8
23 10:56 南南西 3 10km以上 28.9 63 1010.3
23 07:56 3 10km以上 25 79 1010
23 06:56 3 10km以上 23.9 84 1009.2
23 05:56 南南東 3 10km以上 23.3 87 1008.5
23 04:56 4 10km以上 23.9 84 1008.2
23 03:56 3 10km以上 23.9 88 1008.6
23 02:56 2 10km以上 24.4 85 1009
23 01:56 2 10km以上 24.4 85 1009
23 00:56 2 10km以上 24.4 85 1009.4
22 23:56 2 10km以上 24.4 88 1009.4
22 22:56 南南東 2 10km以上 24.4 88 1009.6
22 20:56 静穏 0 10km以上 25 84 1010.1
22 17:56 3 10km以上 26.1 77 1008.6 周辺でしゅう雨
22 16:56 南南東 5 10km以上 27.2 72 1008.3 周辺でしゅう雨
22 15:56 東南東 6 10km以上 27.2 74 1008 周辺でしゅう雨
22 14:56 6 10km以上 27.2 74 1008.1 周辺でしゅう雨
22 13:56 東南東 6 10km以上 27.2 74 1008.3
22 12:56 東南東 5 10km以上 27.2 72 1008.9
22 11:56 東南東 5 10km以上 27.2 72 1009.5
22 10:56 東南東 6 10km以上 25.6 79 1009.9
22 09:56 5 9000m 23.3 94 1010.5 もや
22 08:56 6 8000m 22.2 97 1010.6 弱いしゅう雨 もや
22 07:56 4 9000m 21.7 93 1010.3 弱いしゅう雨 もや
22 06:56 東南東 2 9000m 22.2 93 1009.7 弱いしゅう雨 もや
22 03:56 東北東 3 10km以上 23.9 88 1008.8
22 02:56 東北東 2 10km以上 23.3 91 1008.9
21 23:56 東北東 3 10km以上 24.4 85 1010.1
21 22:56 北東 3 10km以上 23.9 88 1010.4
ROTM 231056Z COR 30009KT 9999 FEW030 SCT070 24/19 A2990 RMK SLP109 T02390194
ROTM 230956Z COR 30008KT 9999 FEW030 SCT065 24/19 A2988 RMK SLP105 T02390189
ROTM 230756Z COR 28008KT 9999 FEW030 SCT090 26/19 A2985 RMK SLP094 T02560194
ROTM 230556Z COR 28013KT 9999 FEW020 SCT050 27/22 A2984 RMK SLP089 T02670211 10289 20267 56010
ROTM 230456Z COR 30011KT 9999 FEW025 SCT045 28/22 A2984 RMK SLP088 T02780217
ROTM 230156Z COR 20005KT 9999 FEW020 SCT045 29/21 A2988 RMK SLP103 T02890211
ROTM 222256Z 19005KT 9999 FEW020 25/21 A2987 RMK SLP100 T02390211
ROTM 222156Z 18006KT 9999 FEW020 24/21 A2985 RMK SLP092 T02390211
ROTM 222056Z COR 16005KT 9999 SKC 23/21 A2983 RMK SLP085 T02330211 55005
ROTM 221956Z 17007KT 9999 SKC 24/21 A2982 RMK SLP082 T02390211
ROTM 221856Z 18005KT 9999 SKC 24/22 A2983 RMK SLP086 T02390217
ROTM 221756Z 18004KT 9999 FEW020 24/22 A2984 RMK SLP090 T02440217 10250 20244 54000
ROTM 221656Z 17004KT 9999 FEW030 24/22 A2985 RMK SLP090 T02440217
ROTM 221556Z COR 19004KT 9999 FEW020 FEW030 24/22 A2985 RMK SLP094 T02440217
ROTM 221456Z 17003KT 9999 FEW020 FEW030 24/22 A2985 RMK SLP094 T02440222 402720222 58007
ROTM 221356Z 15004KT 9999 FEW020 FEW030 25/22 A2986 RMK SLP096 T02440222
ROTM 221156Z VRB00KT 9999 FEW020 SCT030 SCT033 25/22 A2987 RMK SLP101 T02500222 10272 20250 51014
ROTM 220856Z COR 17005KT 9999 VCSH FEW020 SCT030 BKN050 26/22 A2983 RMK SLP086 T02610217 53003
ROTM 220756Z 15010KT 9999 VCSH FEW020 SCT030 BKN050 27/22 A2982 RMK SLP083 T02720217
ROTM 220656Z 11011KT 9999 VCSH FEW019 SCT070 BKN120 27/22 A2981 RMK SLP080 T02720222
ROTM 220556Z COR 10011KT 9999 VCSH FEW019 SCT070 BKN120 27/22 A2981 RMK SLP081 T02720222 10272 20222 57014
ROTM 220456Z COR 12011KT 9999 FEW017 SCT070 BKN120 27/22 A2982 RMK SLP083 T02720222
ROTM 220356Z 12009KT 9999 FEW050 SCT075 SCT110 27/22 A2984 RMK SLP089 T02720217
ROTM 220256Z 12009KT 9999 FEW050 SCT060 BKN120 27/22 A2986 RMK SLP095 T2 60060 T02720217 58008
ROTM 220156Z 11011KT 9999 FEW050 SCT060 BKN120 26/22 A2987 RMK SLP099 T1 END T2 T02560217
ROTM 220056Z 10009KT 9000 BR FEW060 SCT070 OVC090 23/22 A2988 RMK SHRAE47 SLP105 T1 P0006 T02330222
ROTM 212356Z COR 08011KT 8000 -SHRA BR SCT010 BKN028 OVC060 22/22 A2989 RMK SLP106 T1 P0060 60126 T02220217 10239 20217 51012
ROTM 212256Z 10007KT 9000 -SHRA BR FEW030 BKN035 OVC055 22/21 A2988 RMK SLP103 T1 SET T2 T02170206 P0011
ROTM 212156Z 12004KT 9000 -SHRA BR SCT035 BKN050 22/21 A2986 RMK SLP097 T02220211 P0030
ROTM 211856Z 06005KT 9999 FEW025 SCT060 OVC110 24/22 A2983 RMK SLP088 T02390217
ROTM 211756Z 06004KT 9999 SCT060 BKN110 23/22 A2984 RMK SLP089 T02330217 10244 20233 56007
ROTM 211456Z 06005KT 9999 SCT050 SCT080 24/22 A2988 RMK SLP101 T02440217 402890233 53015
ROTM 211356Z 05005KT 9999 SCT090 24/22 A2988 RMK SLP104 T02390217